createdAt,value
2022-08-26T00:02:19.300Z,22.00
2022-08-26T00:05:08.300Z,22.00
2022-08-26T00:07:41.637Z,22.00
2022-08-26T00:10:44.689Z,22.00
2022-08-26T00:13:32.058Z,22.00
2022-08-26T00:16:31.228Z,22.00
2022-08-26T00:19:04.540Z,21.90
2022-08-26T00:21:37.584Z,21.90
2022-08-26T00:24:16.464Z,21.80
2022-08-26T00:26:50.433Z,21.80
2022-08-26T00:29:25.095Z,21.70
2022-08-26T00:32:01.477Z,21.70
2022-08-26T00:34:37.005Z,21.70
2022-08-26T00:37:13.391Z,21.80
2022-08-26T00:40:17.406Z,21.80
2022-08-26T00:42:50.262Z,21.80
2022-08-26T00:45:23.395Z,21.70
2022-08-26T00:48:01.002Z,21.70
2022-08-26T00:50:43.051Z,21.70
2022-08-26T00:53:29.126Z,21.70
2022-08-26T00:56:16.115Z,21.70
2022-08-26T00:58:52.715Z,21.80
2022-08-26T01:01:30.733Z,21.90
2022-08-26T01:04:04.515Z,21.90
2022-08-26T01:06:38.079Z,21.90
2022-08-26T01:09:23.577Z,22.00
2022-08-26T01:12:00.459Z,22.00
2022-08-26T01:14:36.749Z,22.00
2022-08-26T01:20:35.904Z,22.00
2022-08-26T01:23:11.004Z,22.00
2022-08-26T01:26:30.792Z,22.00
2022-08-26T01:29:07.375Z,22.00
2022-08-26T01:31:43.879Z,21.90
2022-08-26T01:34:42.453Z,21.90
2022-08-26T01:37:19.396Z,21.90
2022-08-26T01:39:54.703Z,21.90
2022-08-26T01:42:31.657Z,21.90
2022-08-26T01:45:11.065Z,21.80
2022-08-26T01:47:57.371Z,21.90
2022-08-26T01:50:39.671Z,21.90
2022-08-26T01:53:18.789Z,21.80
2022-08-26T01:56:02.280Z,21.90
2022-08-26T01:58:46.620Z,21.90
2022-08-26T02:01:21.295Z,21.90
2022-08-26T02:04:25.967Z,21.90
2022-08-26T02:07:02.201Z,21.90
2022-08-26T02:09:41.252Z,22.00
2022-08-26T02:12:21.655Z,21.90
2022-08-26T02:15:00.676Z,22.00
2022-08-26T02:17:38.726Z,22.00
2022-08-26T02:20:15.430Z,22.00
2022-08-26T02:22:48.704Z,22.00
2022-08-26T02:25:43.437Z,22.00
2022-08-26T02:28:17.680Z,22.00
2022-08-26T02:30:58.448Z,22.10
2022-08-26T02:36:33.123Z,22.10
2022-08-26T02:39:06.486Z,22.10
2022-08-26T02:41:40.339Z,22.20
2022-08-26T02:47:33.329Z,22.20
2022-08-26T02:50:07.539Z,22.20
2022-08-26T02:55:32.032Z,22.30
2022-08-26T02:58:17.173Z,22.30
2022-08-26T03:00:57.647Z,22.30
2022-08-26T03:03:31.900Z,22.30
2022-08-26T03:06:05.632Z,22.30
2022-08-26T03:08:39.151Z,22.30
2022-08-26T03:14:35.643Z,22.30
2022-08-26T03:17:08.605Z,22.30
2022-08-26T03:19:43.016Z,22.30
2022-08-26T03:22:43.114Z,22.30
2022-08-26T03:25:20.891Z,22.30
2022-08-26T03:27:57.687Z,22.30
2022-08-26T03:30:56.497Z,22.20
2022-08-26T03:33:29.685Z,22.20
2022-08-26T03:36:03.951Z,22.20
2022-08-26T03:38:37.192Z,22.20
2022-08-26T03:41:12.178Z,22.10
2022-08-26T03:43:47.683Z,22.10
2022-08-26T03:46:26.763Z,22.10
2022-08-26T03:49:01.287Z,22.10
2022-08-26T03:51:35.806Z,22.10
2022-08-26T03:54:40.843Z,22.10
2022-08-26T03:57:19.641Z,22.10
2022-08-26T03:59:52.587Z,22.10
2022-08-26T04:03:06.512Z,22.20
2022-08-26T04:06:09.133Z,22.20
2022-08-26T04:08:42.561Z,22.10
2022-08-26T04:15:21.771Z,22.10
2022-08-26T04:17:56.012Z,22.10
2022-08-26T04:20:30.384Z,22.00
2022-08-26T04:23:03.602Z,22.00
2022-08-26T04:25:38.639Z,22.00
2022-08-26T04:28:14.799Z,22.10
2022-08-26T04:30:47.809Z,22.10
2022-08-26T04:33:32.235Z,22.10
2022-08-26T04:36:06.098Z,22.10
2022-08-26T04:38:39.409Z,22.00
2022-08-26T04:41:15.707Z,22.10
2022-08-26T04:43:50.617Z,22.10
2022-08-26T04:46:25.458Z,22.10
2022-08-26T04:48:59.120Z,22.10
2022-08-26T04:51:33.153Z,22.10
2022-08-26T04:54:07.343Z,22.20
2022-08-26T04:56:43.701Z,22.20
2022-08-26T04:59:18.411Z,22.30
2022-08-26T05:01:56.149Z,22.30
2022-08-26T05:04:29.694Z,22.30
2022-08-26T05:07:03.102Z,22.30
2022-08-26T05:09:36.946Z,22.40
2022-08-26T05:12:10.580Z,22.40
2022-08-26T05:14:43.508Z,22.40
2022-08-26T05:17:16.262Z,22.40
2022-08-26T05:19:50.991Z,22.40
2022-08-26T05:22:23.922Z,22.40
2022-08-26T05:24:58.306Z,22.40
2022-08-26T05:27:31.045Z,22.40
2022-08-26T05:30:06.649Z,22.40
2022-08-26T05:32:40.535Z,22.40
2022-08-26T05:35:13.495Z,22.40
2022-08-26T05:37:54.436Z,22.40
2022-08-26T05:40:28.770Z,22.50
2022-08-26T05:43:02.183Z,22.50
2022-08-26T05:45:35.055Z,22.50
2022-08-26T05:48:08.182Z,22.60
2022-08-26T05:50:46.882Z,22.60
2022-08-26T05:53:26.032Z,22.60
2022-08-26T05:56:02.570Z,22.60
2022-08-26T05:58:37.528Z,22.60
2022-08-26T06:01:17.274Z,22.70
2022-08-26T06:03:52.761Z,22.70
2022-08-26T06:06:29.363Z,22.70
2022-08-26T06:09:05.484Z,22.70
2022-08-26T06:11:39.025Z,22.80
2022-08-26T06:14:12.209Z,22.80
2022-08-26T06:16:46.387Z,22.80
2022-08-26T06:19:19.276Z,22.90
2022-08-26T06:21:54.926Z,22.90
2022-08-26T06:24:49.015Z,22.90
2022-08-26T06:27:24.470Z,22.90
2022-08-26T06:30:09.434Z,22.90
2022-08-26T06:32:42.354Z,22.90
2022-08-26T06:35:15.357Z,22.90
2022-08-26T06:37:48.275Z,22.90
2022-08-26T06:40:22.568Z,22.90
2022-08-26T06:42:55.639Z,23.00
2022-08-26T06:45:28.886Z,23.00
2022-08-26T06:48:01.767Z,22.90
2022-08-26T06:50:35.160Z,22.90
2022-08-26T06:53:09.633Z,22.90
2022-08-26T06:55:44.674Z,22.90
2022-08-26T06:58:17.545Z,22.90
2022-08-26T07:00:52.551Z,22.90
2022-08-26T07:03:25.386Z,23.00
2022-08-26T07:06:03.350Z,23.00
2022-08-26T07:08:36.339Z,23.00
2022-08-26T07:11:11.151Z,22.90
2022-08-26T07:13:46.560Z,22.90
2022-08-26T07:16:21.852Z,22.90
2022-08-26T07:18:57.310Z,23.00
2022-08-26T07:21:30.684Z,23.00
2022-08-26T07:24:04.254Z,22.90
2022-08-26T07:26:37.287Z,22.90
2022-08-26T07:29:12.355Z,23.00
2022-08-26T07:31:45.589Z,23.00
2022-08-26T07:34:18.657Z,23.00
2022-08-26T07:36:51.887Z,23.00
2022-08-26T07:39:25.567Z,23.10
2022-08-26T07:42:07.469Z,23.00
2022-08-26T07:44:41.705Z,23.00
2022-08-26T07:47:25.822Z,23.10
2022-08-26T07:50:00.129Z,23.10
2022-08-26T07:52:32.965Z,23.10
2022-08-26T07:55:08.987Z,23.10
2022-08-26T07:57:42.086Z,23.10
2022-08-26T08:00:16.575Z,23.10
2022-08-26T08:02:51.064Z,23.10
2022-08-26T08:05:33.432Z,23.20
2022-08-26T08:08:26.910Z,23.10
2022-08-26T08:11:01.969Z,23.10
2022-08-26T08:13:34.797Z,23.10
2022-08-26T08:16:08.574Z,23.20
2022-08-26T08:18:46.119Z,23.10
2022-08-26T08:21:21.344Z,23.10
2022-08-26T08:23:57.505Z,23.10
2022-08-26T08:26:30.309Z,23.20
2022-08-26T08:29:03.849Z,23.20
2022-08-26T08:31:57.006Z,23.20
2022-08-26T08:34:32.157Z,23.20
2022-08-26T08:37:08.759Z,23.30
2022-08-26T08:39:43.715Z,23.30
2022-08-26T08:42:41.491Z,23.30
2022-08-26T08:45:59.752Z,23.30
2022-08-26T08:48:37.422Z,23.30
2022-08-26T08:51:29.907Z,23.30
2022-08-26T08:54:02.865Z,23.30
2022-08-26T08:56:44.722Z,23.30
2022-08-26T08:59:24.166Z,23.30
2022-08-26T09:02:20.741Z,23.30
2022-08-26T09:05:15.231Z,23.30
2022-08-26T09:08:36.866Z,23.30
2022-08-26T09:11:10.990Z,23.40
2022-08-26T09:13:51.245Z,23.40
2022-08-26T09:16:43.413Z,23.40
2022-08-26T09:19:37.018Z,23.40
2022-08-26T09:22:09.998Z,23.50
2022-08-26T09:24:48.566Z,23.50
2022-08-26T09:27:44.601Z,23.50
2022-08-26T09:30:27.079Z,23.50
2022-08-26T09:33:11.184Z,23.60
2022-08-26T09:38:53.533Z,23.50
2022-08-26T09:41:28.303Z,23.50
2022-08-26T09:44:20.622Z,23.50
2022-08-26T09:46:57.485Z,23.50
2022-08-26T09:49:35.778Z,23.60
2022-08-26T09:52:17.695Z,23.60
2022-08-26T09:55:24.690Z,23.60
2022-08-26T09:58:02.265Z,23.60
2022-08-26T10:00:40.407Z,23.60
2022-08-26T10:03:25.083Z,23.60
2022-08-26T10:06:04.295Z,23.60
2022-08-26T10:08:40.847Z,23.60
2022-08-26T10:11:34.914Z,23.60
2022-08-26T10:14:32.481Z,23.70
2022-08-26T10:17:30.740Z,23.70
2022-08-26T10:20:29.861Z,23.80
2022-08-26T10:23:17.910Z,23.80
2022-08-26T10:26:01.637Z,23.80
2022-08-26T10:28:54.830Z,23.90
2022-08-26T10:31:38.244Z,23.90
2022-08-26T10:34:14.184Z,23.90
2022-08-26T10:37:18.630Z,24.00
2022-08-26T10:40:01.853Z,24.00
2022-08-26T10:43:07.042Z,24.10
2022-08-26T10:45:54.561Z,24.10
2022-08-26T10:49:17.780Z,24.20
2022-08-26T10:52:21.390Z,24.20
2022-08-26T10:55:09.012Z,24.20
2022-08-26T10:58:04.943Z,24.20
2022-08-26T11:01:10.153Z,24.20
2022-08-26T11:04:04.855Z,24.20
2022-08-26T11:06:37.768Z,24.20
2022-08-26T11:09:10.758Z,24.20
2022-08-26T11:11:47.097Z,24.20
2022-08-26T11:14:28.354Z,24.20
2022-08-26T11:17:02.945Z,24.30
2022-08-26T11:19:57.075Z,24.30
2022-08-26T11:22:36.192Z,24.30
2022-08-26T11:25:14.858Z,24.30
2022-08-26T11:27:54.253Z,24.30
2022-08-26T11:30:43.059Z,24.40
2022-08-26T11:33:47.696Z,24.40
2022-08-26T11:36:42.162Z,24.40
2022-08-26T11:39:20.889Z,24.50
2022-08-26T11:41:59.871Z,24.60
2022-08-26T11:44:49.077Z,24.60
2022-08-26T11:47:29.531Z,24.60
2022-08-26T11:50:19.710Z,24.70
2022-08-26T11:52:54.750Z,24.70
2022-08-26T11:55:29.809Z,24.80
2022-08-26T11:58:05.075Z,24.90
2022-08-26T12:01:11.466Z,25.00
2022-08-26T12:03:44.433Z,25.10
2022-08-26T12:06:29.342Z,25.20
2022-08-26T12:09:11.570Z,25.30
2022-08-26T12:11:44.318Z,25.40
2022-08-26T12:14:25.462Z,25.40
2022-08-26T12:17:14.041Z,25.50
2022-08-26T12:19:47.094Z,25.60
2022-08-26T12:22:34.478Z,25.70
2022-08-26T12:25:10.175Z,25.80
2022-08-26T12:27:45.275Z,25.90
2022-08-26T12:30:23.686Z,26.10
2022-08-26T12:33:22.972Z,26.20
2022-08-26T12:35:57.470Z,26.10
2022-08-26T12:38:30.938Z,26.20
2022-08-26T12:41:39.314Z,26.20
2022-08-26T12:44:32.202Z,26.20
2022-08-26T12:47:42.899Z,26.20
2022-08-26T12:50:23.584Z,26.20
2022-08-26T12:53:17.665Z,26.20
2022-08-26T12:56:00.097Z,26.10
2022-08-26T12:58:35.995Z,26.10
2022-08-26T13:01:09.541Z,26.00
2022-08-26T13:03:45.303Z,26.00
2022-08-26T13:06:26.156Z,25.90
2022-08-26T13:09:25.330Z,25.80
2022-08-26T13:12:49.179Z,25.70
2022-08-26T13:15:21.991Z,25.60
2022-08-26T13:17:54.778Z,25.60
2022-08-26T13:20:32.155Z,25.40
2022-08-26T13:23:11.715Z,25.40
2022-08-26T13:25:44.947Z,25.30
2022-08-26T13:28:18.225Z,25.20
2022-08-26T13:30:51.067Z,25.10
2022-08-26T13:33:23.986Z,25.10
2022-08-26T13:35:57.009Z,25.10
2022-08-26T13:38:33.301Z,25.00
2022-08-26T13:41:06.914Z,25.00
2022-08-26T13:43:39.807Z,24.90
2022-08-26T13:46:12.942Z,24.90
2022-08-26T13:48:46.110Z,24.80
2022-08-26T13:51:20.420Z,24.80
2022-08-26T13:53:54.000Z,24.70
2022-08-26T13:56:29.692Z,24.60
2022-08-26T13:59:03.024Z,24.50
2022-08-26T14:01:37.116Z,24.50
2022-08-26T14:04:09.934Z,24.50
2022-08-26T14:06:42.984Z,24.40
2022-08-26T14:09:15.753Z,24.30
2022-08-26T14:11:54.103Z,24.30
2022-08-26T14:14:27.757Z,24.20
2022-08-26T14:17:01.576Z,24.20
2022-08-26T14:19:34.566Z,24.20
2022-08-26T14:22:08.181Z,24.10
2022-08-26T14:24:40.959Z,24.10
2022-08-26T14:27:39.959Z,24.10
2022-08-26T14:30:14.074Z,24.10
2022-08-26T14:32:55.996Z,24.10
2022-08-26T14:35:30.691Z,24.10
2022-08-26T14:38:03.665Z,24.00
2022-08-26T14:40:37.547Z,24.00
2022-08-26T14:43:15.078Z,24.00
2022-08-26T14:45:47.949Z,24.00
2022-08-26T14:48:20.912Z,24.00
2022-08-26T14:50:53.653Z,23.90
2022-08-26T14:53:46.617Z,23.90
2022-08-26T14:56:19.475Z,23.90
2022-08-26T14:58:52.541Z,23.90
2022-08-26T15:01:34.227Z,23.80
2022-08-26T15:04:07.247Z,23.80
2022-08-26T15:07:05.496Z,23.80
2022-08-26T15:09:38.479Z,23.80
2022-08-26T15:12:11.328Z,23.80
2022-08-26T15:14:44.192Z,23.80
2022-08-26T15:17:17.455Z,23.80
2022-08-26T15:19:50.526Z,23.80
2022-08-26T15:22:25.999Z,23.80
2022-08-26T15:25:04.330Z,23.80
2022-08-26T15:27:37.717Z,23.80
2022-08-26T15:30:18.286Z,23.70
2022-08-26T15:32:51.097Z,23.70
2022-08-26T15:35:24.197Z,23.70
2022-08-26T15:37:56.968Z,23.60
2022-08-26T15:40:33.045Z,23.60
2022-08-26T15:43:25.459Z,23.60
2022-08-26T15:45:59.725Z,23.60
2022-08-26T15:48:32.558Z,23.60
2022-08-26T15:51:07.067Z,23.60
2022-08-26T15:53:39.819Z,23.60
2022-08-26T15:56:13.151Z,23.60
2022-08-26T15:58:46.677Z,23.60
2022-08-26T16:01:27.177Z,23.60
2022-08-26T16:04:00.758Z,23.60
2022-08-26T16:06:37.126Z,23.60
2022-08-26T16:09:10.202Z,23.60
2022-08-26T16:11:43.210Z,23.50
2022-08-26T16:14:16.463Z,23.50
2022-08-26T16:16:49.898Z,23.50
2022-08-26T16:19:22.933Z,23.50
2022-08-26T16:21:55.826Z,23.50
2022-08-26T16:24:30.672Z,23.50
2022-08-26T16:27:03.710Z,23.40
2022-08-26T16:29:38.051Z,23.40
2022-08-26T16:32:10.988Z,23.40
2022-08-26T16:34:56.541Z,23.40
2022-08-26T16:37:29.922Z,23.40
2022-08-26T16:40:03.790Z,23.40
2022-08-26T16:42:37.820Z,23.40
2022-08-26T16:45:10.862Z,23.40
2022-08-26T16:47:44.042Z,23.30
2022-08-26T16:50:18.542Z,23.30
2022-08-26T16:52:55.681Z,23.30
2022-08-26T16:55:28.805Z,23.20
2022-08-26T16:58:02.256Z,23.20
2022-08-26T17:00:47.344Z,23.20
2022-08-26T17:03:20.182Z,23.10
2022-08-26T17:05:53.178Z,23.10
2022-08-26T17:08:28.731Z,23.10
2022-08-26T17:11:02.128Z,23.00
2022-08-26T17:13:42.480Z,23.00
2022-08-26T17:16:16.060Z,22.90
2022-08-26T17:18:49.097Z,22.90
2022-08-26T17:21:21.887Z,22.90
2022-08-26T17:23:56.255Z,22.90
2022-08-26T17:26:29.285Z,22.80
2022-08-26T17:29:02.272Z,22.80
2022-08-26T17:31:35.016Z,22.80
2022-08-26T17:34:08.221Z,22.70
2022-08-26T17:36:41.127Z,22.60
2022-08-26T17:39:14.338Z,22.60
2022-08-26T17:41:47.165Z,22.60
2022-08-26T17:44:20.111Z,22.60
2022-08-26T17:46:52.972Z,22.50
2022-08-26T17:49:26.073Z,22.50
2022-08-26T17:51:59.967Z,22.40
2022-08-26T17:54:33.091Z,22.40
2022-08-26T17:57:31.197Z,22.40
2022-08-26T18:00:07.173Z,22.30
2022-08-26T18:02:40.763Z,22.30
2022-08-26T18:05:17.492Z,22.20
2022-08-26T18:07:51.362Z,22.20
2022-08-26T18:10:26.156Z,22.30
2022-08-26T18:12:58.890Z,22.20
2022-08-26T18:15:31.935Z,22.20
2022-08-26T18:18:05.344Z,22.20
2022-08-26T18:20:40.729Z,22.20
2022-08-26T18:23:13.643Z,22.20
2022-08-26T18:25:46.576Z,22.10
2022-08-26T18:28:19.494Z,22.10
2022-08-26T18:30:52.497Z,22.10
2022-08-26T18:33:25.422Z,22.10
2022-08-26T18:36:07.619Z,22.10
2022-08-26T18:38:40.510Z,22.00
2022-08-26T18:41:15.841Z,22.00
2022-08-26T18:43:50.350Z,22.00
2022-08-26T18:46:28.667Z,22.00
2022-08-26T18:49:03.615Z,21.90
2022-08-26T18:51:37.872Z,21.90
2022-08-26T18:54:11.643Z,21.90
2022-08-26T18:56:44.530Z,21.90
2022-08-26T18:59:17.874Z,21.90
2022-08-26T19:01:51.090Z,21.90
2022-08-26T19:04:23.958Z,21.90
2022-08-26T19:06:56.898Z,21.90
2022-08-26T19:09:31.464Z,21.90
2022-08-26T19:12:05.275Z,21.90
2022-08-26T19:14:38.099Z,21.90
2022-08-26T19:17:11.830Z,21.90
2022-08-26T19:19:44.744Z,21.90
2022-08-26T19:22:19.873Z,21.80
2022-08-26T19:24:52.688Z,21.70
2022-08-26T19:27:25.822Z,21.70
2022-08-26T19:29:59.134Z,21.70
2022-08-26T19:32:33.123Z,21.70
2022-08-26T19:35:08.314Z,21.70
2022-08-26T19:37:41.531Z,21.70
2022-08-26T19:40:14.488Z,21.70
2022-08-26T19:42:47.505Z,21.70
2022-08-26T19:45:25.341Z,21.70
2022-08-26T19:47:59.037Z,21.70
2022-08-26T19:50:34.294Z,21.60
2022-08-26T19:53:07.287Z,21.60
2022-08-26T19:55:40.171Z,21.60
2022-08-26T19:58:13.135Z,21.60
2022-08-26T20:00:45.994Z,21.60
2022-08-26T20:03:18.818Z,21.60
2022-08-26T20:05:51.803Z,21.60
2022-08-26T20:08:24.889Z,21.60
2022-08-26T20:11:05.768Z,21.60
2022-08-26T20:13:40.114Z,21.60
2022-08-26T20:16:13.755Z,21.50
2022-08-26T20:19:05.500Z,21.50
2022-08-26T20:21:40.674Z,21.50
2022-08-26T20:24:18.072Z,21.50
2022-08-26T20:26:50.874Z,21.50
2022-08-26T20:29:23.755Z,21.50
2022-08-26T20:31:56.913Z,21.50
2022-08-26T20:34:30.161Z,21.50
2022-08-26T20:37:05.961Z,21.40
2022-08-26T20:39:38.957Z,21.40
2022-08-26T20:42:20.508Z,21.40
2022-08-26T20:44:54.454Z,21.40
2022-08-26T20:47:28.066Z,21.40
2022-08-26T20:50:02.790Z,21.40
2022-08-26T20:52:35.595Z,21.40
2022-08-26T20:55:08.988Z,21.40
2022-08-26T20:57:43.118Z,21.30
2022-08-26T21:00:18.149Z,21.30
2022-08-26T21:02:52.903Z,21.30
2022-08-26T21:05:26.817Z,21.30
2022-08-26T21:07:59.755Z,21.30
2022-08-26T21:10:32.992Z,21.30
2022-08-26T21:13:06.266Z,21.30
2022-08-26T21:15:39.365Z,21.30
2022-08-26T21:18:12.236Z,21.30
2022-08-26T21:20:45.238Z,21.20
2022-08-26T21:23:18.587Z,21.20
2022-08-26T21:25:51.531Z,21.20
2022-08-26T21:28:24.298Z,21.20
2022-08-26T21:30:57.633Z,21.20
2022-08-26T21:33:30.491Z,21.20
2022-08-26T21:36:04.677Z,21.10
2022-08-26T21:38:39.065Z,21.10
2022-08-26T21:41:14.084Z,21.10
2022-08-26T21:43:48.196Z,21.10
2022-08-26T21:46:23.248Z,21.10
2022-08-26T21:49:00.445Z,21.10
2022-08-26T21:51:36.242Z,21.10
2022-08-26T21:54:11.465Z,21.00
2022-08-26T21:56:47.045Z,21.00
2022-08-26T21:59:19.906Z,21.00
2022-08-26T22:01:52.982Z,21.00
2022-08-26T22:04:26.230Z,20.90
2022-08-26T22:06:59.183Z,20.90
2022-08-26T22:09:32.261Z,20.90
2022-08-26T22:12:09.495Z,20.90
2022-08-26T22:14:42.860Z,20.90
2022-08-26T22:17:15.964Z,20.90
2022-08-26T22:19:48.777Z,20.90
2022-08-26T22:22:23.090Z,20.90
2022-08-26T22:24:55.856Z,20.90
2022-08-26T22:27:28.821Z,20.90
2022-08-26T22:30:01.980Z,20.90
2022-08-26T22:32:35.095Z,20.90
2022-08-26T22:35:28.206Z,20.90
2022-08-26T22:38:01.070Z,20.90
2022-08-26T22:40:35.459Z,20.90
2022-08-26T22:43:08.595Z,20.80
2022-08-26T22:45:43.829Z,20.90
2022-08-26T22:48:19.200Z,20.90
2022-08-26T22:50:59.596Z,20.90
2022-08-26T22:53:35.863Z,20.90
2022-08-26T22:56:12.073Z,20.90
2022-08-26T22:58:45.612Z,20.90
2022-08-26T23:01:18.629Z,20.80
2022-08-26T23:03:51.599Z,20.80
2022-08-26T23:06:24.435Z,20.80
2022-08-26T23:08:57.324Z,20.80
2022-08-26T23:11:30.098Z,20.80
2022-08-26T23:14:06.676Z,20.80
2022-08-26T23:16:43.947Z,20.80
2022-08-26T23:19:19.726Z,20.80
2022-08-26T23:21:52.546Z,20.80
2022-08-26T23:24:25.491Z,20.80
2022-08-26T23:26:58.352Z,20.80
2022-08-26T23:29:31.381Z,20.90
2022-08-26T23:32:04.529Z,20.90
2022-08-26T23:34:55.851Z,20.90
2022-08-26T23:37:33.431Z,20.90
2022-08-26T23:40:13.173Z,20.90
2022-08-26T23:42:46.011Z,20.90
2022-08-26T23:45:20.019Z,20.80
2022-08-26T23:47:53.919Z,20.90
2022-08-26T23:50:49.245Z,20.90
2022-08-26T23:53:22.503Z,20.90
2022-08-26T23:55:55.785Z,20.90
2022-08-26T23:58:28.567Z,20.90
